createdAt,value
2018-05-07T00:00:39.904Z,3.10
2018-05-07T00:03:06.892Z,2.60
2018-05-07T00:05:33.892Z,3.33
2018-05-07T00:08:00.883Z,2.10
2018-05-07T00:10:28.105Z,2.70
2018-05-07T00:12:55.094Z,2.50
2018-05-07T00:15:22.081Z,2.20
2018-05-07T00:17:49.084Z,2.60
2018-05-07T00:20:16.279Z,2.17
2018-05-07T00:22:43.277Z,2.20
2018-05-07T00:25:11.040Z,2.80
2018-05-07T00:27:38.040Z,2.50
2018-05-07T00:30:05.089Z,2.20
2018-05-07T00:32:32.093Z,2.30
2018-05-07T00:34:59.078Z,2.40
2018-05-07T00:37:26.067Z,2.23
2018-05-07T00:39:53.273Z,2.20
2018-05-07T00:42:20.277Z,1.93
2018-05-07T00:44:47.299Z,2.20
2018-05-07T00:47:14.630Z,2.60
2018-05-07T00:49:41.676Z,2.20
2018-05-07T00:52:08.688Z,2.43
2018-05-07T00:54:35.705Z,2.07
2018-05-07T00:57:02.708Z,2.67
2018-05-07T00:59:29.864Z,2.37
2018-05-07T01:01:56.870Z,2.00
2018-05-07T01:04:23.868Z,2.40
2018-05-07T01:06:50.872Z,2.43
2018-05-07T01:09:18.664Z,2.23
2018-05-07T01:11:45.648Z,2.43
2018-05-07T01:14:12.648Z,2.63
2018-05-07T01:16:39.646Z,2.57
2018-05-07T01:19:06.642Z,2.30
2018-05-07T01:21:33.632Z,2.47
2018-05-07T01:24:00.637Z,2.27
2018-05-07T01:26:27.633Z,2.30
2018-05-07T01:28:54.632Z,2.70
2018-05-07T01:31:21.625Z,2.50
2018-05-07T01:33:48.638Z,2.50
2018-05-07T01:36:15.645Z,2.20
2018-05-07T01:38:43.406Z,2.07
2018-05-07T01:41:10.422Z,2.10
2018-05-07T01:43:37.412Z,2.27
2018-05-07T01:46:05.187Z,2.20
2018-05-07T01:48:32.174Z,2.33
2018-05-07T01:50:59.293Z,2.30
2018-05-07T01:53:26.304Z,2.70
2018-05-07T01:55:53.292Z,1.97
2018-05-07T01:58:20.289Z,2.40
2018-05-07T02:00:47.477Z,2.47
2018-05-07T02:03:14.474Z,2.10
2018-05-07T02:05:41.470Z,2.00
2018-05-07T02:08:08.465Z,2.40
2018-05-07T02:10:35.670Z,2.13
2018-05-07T02:13:02.661Z,2.13
2018-05-07T02:15:29.654Z,2.10
2018-05-07T02:17:56.647Z,2.13
2018-05-07T02:20:23.658Z,2.30
2018-05-07T02:22:50.663Z,2.20
2018-05-07T02:25:17.651Z,1.80
2018-05-07T02:27:44.644Z,1.80
2018-05-07T02:30:11.655Z,2.17
2018-05-07T02:32:38.656Z,2.07
2018-05-07T02:35:05.659Z,2.47
2018-05-07T02:37:32.676Z,2.50
2018-05-07T02:39:59.840Z,2.13
2018-05-07T02:42:26.831Z,1.90
2018-05-07T02:44:53.835Z,2.00
2018-05-07T02:47:20.833Z,2.43
2018-05-07T02:49:48.048Z,2.00
2018-05-07T02:52:15.059Z,2.43
2018-05-07T02:54:42.055Z,2.30
2018-05-07T02:57:09.052Z,2.70
2018-05-07T02:59:36.836Z,2.00
2018-05-07T03:02:03.843Z,2.00
2018-05-07T03:04:30.834Z,1.77
2018-05-07T03:06:57.838Z,2.10
2018-05-07T03:09:25.654Z,2.27
2018-05-07T03:11:52.675Z,2.47
2018-05-07T03:14:19.663Z,2.50
2018-05-07T03:16:46.663Z,2.10
2018-05-07T03:19:13.845Z,2.20
2018-05-07T03:21:40.834Z,2.17
2018-05-07T03:24:07.853Z,1.80
2018-05-07T03:26:34.839Z,2.10
2018-05-07T03:29:02.635Z,2.30
2018-05-07T03:31:29.625Z,2.17
2018-05-07T03:33:56.627Z,2.20
2018-05-07T03:36:23.628Z,2.00
2018-05-07T03:38:50.644Z,2.00
2018-05-07T03:41:17.657Z,2.20
2018-05-07T03:43:44.649Z,2.20
2018-05-07T03:46:11.660Z,1.80
2018-05-07T03:48:38.685Z,2.20
2018-05-07T03:51:06.432Z,2.30
2018-05-07T03:53:33.436Z,2.13
2018-05-07T03:56:00.424Z,2.27
2018-05-07T03:58:27.416Z,2.50
2018-05-07T04:00:54.449Z,3.10
2018-05-07T04:03:21.443Z,2.97
2018-05-07T04:05:48.440Z,2.53
2018-05-07T04:08:15.464Z,2.40
2018-05-07T04:10:43.264Z,2.33
2018-05-07T04:13:10.260Z,2.43
2018-05-07T04:15:37.255Z,2.20
2018-05-07T04:18:04.251Z,3.20
2018-05-07T04:20:31.454Z,2.77
2018-05-07T04:22:58.437Z,2.50
2018-05-07T04:25:25.447Z,2.50
2018-05-07T04:27:52.447Z,2.63
2018-05-07T04:30:19.445Z,2.67
2018-05-07T04:32:46.431Z,2.47
2018-05-07T04:35:13.437Z,2.70
2018-05-07T04:37:40.428Z,2.67
2018-05-07T04:40:07.644Z,2.50
2018-05-07T04:42:34.635Z,2.83
2018-05-07T04:45:01.634Z,2.70
2018-05-07T04:47:28.627Z,2.93
2018-05-07T04:49:55.846Z,2.50
2018-05-07T04:52:22.835Z,2.47
2018-05-07T04:54:50.597Z,2.20
2018-05-07T04:57:18.359Z,3.30
2018-05-07T04:59:45.453Z,3.23
2018-05-07T05:02:13.648Z,2.70
2018-05-07T05:04:40.659Z,3.70
2018-05-07T05:07:07.745Z,3.10
2018-05-07T05:09:34.868Z,3.23
2018-05-07T05:12:01.849Z,2.90
2018-05-07T05:14:28.838Z,3.20
2018-05-07T05:16:56.800Z,3.30
2018-05-07T05:19:23.881Z,2.97
2018-05-07T05:21:50.866Z,2.90
2018-05-07T05:24:17.857Z,3.03
2018-05-07T05:26:44.852Z,3.20
2018-05-07T05:29:11.898Z,3.70
2018-05-07T05:31:38.885Z,3.27
2018-05-07T05:34:05.893Z,3.50
2018-05-07T05:36:32.884Z,3.23
2018-05-07T05:39:01.485Z,2.60
2018-05-07T05:41:28.474Z,2.90
2018-05-07T05:43:55.470Z,3.20
2018-05-07T05:46:22.461Z,2.77
2018-05-07T05:48:49.473Z,2.97
2018-05-07T05:51:16.483Z,3.07
2018-05-07T05:53:43.480Z,3.40
2018-05-07T05:56:10.647Z,3.60
2018-05-07T05:58:37.601Z,3.33
2018-05-07T06:01:04.612Z,3.20
2018-05-07T06:03:31.613Z,3.27
2018-05-07T06:05:58.600Z,3.20
2018-05-07T06:08:25.595Z,3.27
2018-05-07T06:10:53.101Z,3.30
2018-05-07T06:13:20.090Z,2.90
2018-05-07T06:15:47.102Z,3.43
2018-05-07T06:18:14.142Z,3.60
2018-05-07T06:20:41.299Z,2.73
2018-05-07T06:23:08.307Z,2.40
2018-05-07T06:25:35.303Z,2.93
2018-05-07T06:28:02.298Z,3.60
2018-05-07T06:30:29.493Z,3.27
2018-05-07T06:32:56.489Z,3.30
2018-05-07T06:35:23.502Z,3.10
2018-05-07T06:37:50.510Z,3.03
2018-05-07T06:40:18.296Z,3.10
2018-05-07T06:42:45.328Z,3.10
2018-05-07T06:45:12.867Z,2.90
2018-05-07T06:47:40.651Z,2.90
2018-05-07T06:50:09.380Z,2.73
2018-05-07T06:52:36.384Z,2.90
2018-05-07T06:55:03.388Z,3.23
2018-05-07T06:57:30.389Z,4.30
2018-05-07T06:59:57.549Z,4.70
2018-05-07T07:02:24.607Z,4.30
2018-05-07T07:04:52.147Z,4.10
2018-05-07T07:07:19.140Z,4.17
2018-05-07T07:09:46.630Z,3.87
2018-05-07T07:12:13.679Z,3.63
2018-05-07T07:14:41.465Z,4.03
2018-05-07T07:17:08.465Z,3.60
2018-05-07T07:19:35.619Z,3.73
2018-05-07T07:22:02.639Z,3.80
2018-05-07T07:24:30.404Z,3.77
2018-05-07T07:26:57.415Z,3.50
2018-05-07T07:29:24.584Z,3.80
2018-05-07T07:31:51.599Z,4.17
2018-05-07T07:34:19.349Z,4.43
2018-05-07T07:36:47.118Z,4.17
2018-05-07T07:39:14.187Z,4.40
2018-05-07T07:41:41.193Z,3.57
2018-05-07T07:44:08.187Z,4.10
2018-05-07T07:46:35.195Z,3.40
2018-05-07T07:49:03.020Z,4.10
2018-05-07T07:51:30.031Z,4.17
2018-05-07T07:53:57.817Z,3.97
2018-05-07T07:56:24.810Z,3.43
2018-05-07T07:58:51.816Z,4.33
2018-05-07T08:01:18.823Z,3.60
2018-05-07T08:03:45.826Z,3.47
2018-05-07T08:06:12.829Z,4.00
2018-05-07T08:08:39.925Z,4.00
2018-05-07T08:11:06.917Z,3.70
2018-05-07T08:13:34.703Z,3.93
2018-05-07T08:16:01.692Z,4.10
2018-05-07T08:18:28.689Z,4.00
2018-05-07T08:20:55.852Z,3.67
2018-05-07T08:23:22.856Z,3.53
2018-05-07T08:25:49.856Z,4.10
2018-05-07T08:28:16.855Z,3.30
2018-05-07T08:30:44.843Z,4.40
2018-05-07T08:33:11.883Z,3.97
2018-05-07T08:35:38.872Z,4.07
2018-05-07T08:38:06.386Z,3.60
2018-05-07T08:40:33.464Z,3.80
2018-05-07T08:43:00.458Z,3.60
2018-05-07T08:45:27.450Z,3.33
2018-05-07T08:47:54.472Z,3.77
2018-05-07T08:50:22.342Z,3.57
2018-05-07T08:52:49.358Z,4.20
2018-05-07T08:55:16.306Z,4.10
2018-05-07T08:57:43.309Z,3.60
2018-05-07T09:00:10.459Z,3.70
2018-05-07T09:02:37.471Z,4.10
2018-05-07T09:05:04.474Z,3.37
2018-05-07T09:07:31.491Z,3.50
2018-05-07T09:09:59.273Z,3.23
2018-05-07T09:12:30.801Z,3.60
2018-05-07T09:14:57.795Z,4.17
2018-05-07T09:17:24.797Z,3.70
2018-05-07T09:19:52.577Z,3.90
2018-05-07T09:22:19.592Z,3.90
2018-05-07T09:24:47.437Z,3.73
2018-05-07T09:27:15.338Z,4.70
2018-05-07T09:29:42.409Z,3.87
2018-05-07T09:32:09.438Z,3.53
2018-05-07T09:34:36.429Z,3.97
2018-05-07T09:37:03.479Z,3.83
2018-05-07T09:39:30.597Z,3.70
2018-05-07T09:41:57.592Z,3.40
2018-05-07T09:44:24.594Z,4.20
2018-05-07T09:46:51.574Z,4.07
2018-05-07T09:49:18.580Z,3.93
2018-05-07T09:51:45.579Z,3.73
2018-05-07T09:54:12.563Z,4.07
2018-05-07T09:56:39.624Z,3.93
2018-05-07T09:59:06.772Z,3.50
2018-05-07T10:01:33.773Z,3.57
2018-05-07T10:04:00.925Z,3.90
2018-05-07T10:06:28.702Z,4.30
2018-05-07T10:08:55.784Z,4.00
2018-05-07T10:11:22.780Z,4.10
2018-05-07T10:13:49.782Z,3.90
2018-05-07T10:16:16.798Z,3.47
2018-05-07T10:18:44.584Z,3.10
2018-05-07T10:21:11.591Z,3.60
2018-05-07T10:23:38.638Z,3.97
2018-05-07T10:26:05.636Z,3.17
2018-05-07T10:28:32.658Z,3.43
2018-05-07T10:31:00.416Z,3.60
2018-05-07T10:33:27.468Z,3.60
2018-05-07T10:35:55.230Z,3.90
2018-05-07T10:38:22.231Z,3.57
2018-05-07T10:40:49.227Z,3.50
2018-05-07T10:43:16.225Z,3.47
2018-05-07T10:45:43.334Z,3.37
2018-05-07T10:48:10.340Z,3.20
2018-05-07T10:50:37.425Z,3.30
2018-05-07T10:53:04.423Z,3.40
2018-05-07T10:55:31.433Z,3.00
2018-05-07T10:57:58.436Z,3.70
2018-05-07T11:00:26.247Z,3.90
2018-05-07T11:02:53.414Z,3.60
2018-05-07T11:05:20.402Z,3.77
2018-05-07T11:07:48.157Z,3.80
2018-05-07T11:10:15.344Z,3.00
2018-05-07T11:12:42.340Z,3.60
2018-05-07T11:15:09.364Z,3.63
2018-05-07T11:17:36.365Z,3.30
2018-05-07T11:20:03.437Z,3.20
2018-05-07T11:22:30.492Z,3.50
2018-05-07T11:24:57.623Z,3.50
2018-05-07T11:27:25.407Z,2.80
2018-05-07T11:29:52.461Z,3.60
2018-05-07T11:32:20.059Z,3.10
2018-05-07T11:34:47.105Z,3.37
2018-05-07T11:37:14.127Z,3.00
2018-05-07T11:39:41.256Z,3.07
2018-05-07T11:42:08.256Z,3.10
2018-05-07T11:44:35.247Z,3.30
2018-05-07T11:47:02.260Z,3.67
2018-05-07T11:49:30.089Z,2.77
2018-05-07T11:51:57.068Z,2.80
2018-05-07T11:54:24.060Z,2.83
2018-05-07T11:56:51.049Z,2.90
2018-05-07T11:59:18.050Z,2.50
2018-05-07T12:01:45.156Z,3.30
2018-05-07T12:04:12.940Z,3.20
2018-05-07T12:06:39.961Z,3.17
2018-05-07T12:09:07.093Z,2.93
2018-05-07T12:11:34.071Z,3.10
2018-05-07T12:14:01.085Z,2.80
2018-05-07T12:16:28.186Z,3.03
2018-05-07T12:18:55.255Z,3.00
2018-05-07T12:21:22.237Z,2.43
2018-05-07T12:23:49.247Z,2.73
2018-05-07T12:26:16.234Z,3.00
2018-05-07T12:28:43.300Z,2.90
2018-05-07T12:31:11.147Z,2.60
2018-05-07T12:33:38.107Z,2.37
2018-05-07T12:36:05.590Z,2.70
2018-05-07T12:38:32.584Z,2.40
2018-05-07T12:40:59.582Z,2.77
2018-05-07T12:43:26.592Z,2.47
2018-05-07T12:45:53.888Z,2.70
2018-05-07T12:48:20.893Z,3.17
2018-05-07T12:50:48.091Z,2.47
2018-05-07T12:53:15.186Z,2.60
2018-05-07T12:55:42.188Z,2.60
2018-05-07T12:58:09.218Z,2.50
2018-05-07T13:00:37.241Z,2.50
2018-05-07T13:03:04.309Z,2.53
2018-05-07T13:05:31.314Z,2.63
2018-05-07T13:07:58.324Z,2.87
2018-05-07T13:10:26.114Z,3.03
2018-05-07T13:12:53.117Z,2.60
2018-05-07T13:15:21.234Z,2.40
2018-05-07T13:17:48.240Z,2.63
2018-05-07T13:20:15.502Z,2.70
2018-05-07T13:22:42.522Z,2.90
2018-05-07T13:25:09.535Z,3.10
2018-05-07T13:27:36.528Z,3.07
2018-05-07T13:30:03.726Z,2.63
2018-05-07T13:32:30.711Z,2.50
2018-05-07T13:34:57.701Z,3.00
2018-05-07T13:37:24.694Z,2.80
2018-05-07T13:39:51.708Z,2.53
2018-05-07T13:42:18.707Z,3.00
2018-05-07T13:44:45.692Z,2.83
2018-05-07T13:47:12.707Z,2.37
2018-05-07T13:49:39.710Z,2.57
2018-05-07T13:52:06.692Z,2.63
2018-05-07T13:54:33.692Z,2.53
2018-05-07T13:57:00.678Z,2.67
2018-05-07T13:59:27.712Z,2.43
2018-05-07T14:01:54.714Z,2.33
2018-05-07T14:04:21.688Z,2.40
2018-05-07T14:06:48.688Z,2.60
2018-05-07T14:09:16.475Z,2.00
2018-05-07T14:11:43.478Z,2.40
2018-05-07T14:14:10.478Z,2.80
2018-05-07T14:16:37.527Z,2.58
2018-05-07T14:19:04.696Z,10.00
2018-05-07T14:21:31.758Z,7.20
2018-05-07T14:23:58.708Z,7.40
2018-05-07T14:26:25.711Z,5.63
2018-05-07T14:28:52.876Z,5.17
2018-05-07T14:31:19.875Z,5.20
2018-05-07T14:33:46.899Z,4.40
2018-05-07T14:36:13.998Z,4.40
2018-05-07T14:38:40.998Z,4.87
2018-05-07T14:41:08.027Z,4.10
2018-05-07T14:43:35.151Z,4.40
2018-05-07T14:46:02.149Z,4.73
2018-05-07T14:48:29.154Z,5.23
2018-05-07T14:50:56.212Z,4.43
2018-05-07T14:53:23.215Z,4.50
2018-05-07T14:55:50.974Z,4.10
2018-05-07T14:58:18.029Z,4.70
2018-05-07T15:00:45.113Z,3.90
2018-05-07T15:03:12.163Z,4.23
2018-05-07T15:05:39.299Z,4.10
2018-05-07T15:08:06.245Z,3.80
2018-05-07T15:10:33.387Z,4.63
2018-05-07T15:13:00.369Z,3.70
2018-05-07T15:15:27.363Z,3.90
2018-05-07T15:17:54.350Z,4.10
2018-05-07T15:20:21.714Z,3.37
2018-05-07T15:22:48.824Z,3.60
2018-05-07T15:25:15.828Z,3.83
2018-05-07T15:27:42.820Z,3.27
2018-05-07T15:30:09.892Z,3.70
2018-05-07T15:32:36.910Z,3.37
2018-05-07T15:35:03.911Z,24.50
2018-05-07T15:37:30.907Z,8.17
2018-05-07T15:39:58.193Z,6.13
2018-05-07T15:42:25.206Z,5.50
2018-05-07T15:44:52.214Z,5.90
2018-05-07T15:47:19.601Z,4.20
2018-05-07T15:49:46.880Z,4.90
2018-05-07T15:52:13.895Z,3.90
2018-05-07T15:54:40.885Z,4.80
2018-05-07T15:57:07.882Z,13.97
2018-05-07T15:59:35.694Z,11.37
2018-05-07T16:02:02.688Z,7.63
2018-05-07T16:04:29.681Z,5.50
2018-05-07T16:06:56.677Z,5.83
2018-05-07T16:09:23.892Z,5.10
2018-05-07T16:11:50.878Z,4.87
2018-05-07T16:14:17.878Z,3.93
2018-05-07T16:16:44.891Z,3.30
2018-05-07T16:19:12.683Z,4.07
2018-05-07T16:21:39.765Z,5.60
2018-05-07T16:24:06.711Z,7.00
2018-05-07T16:26:33.723Z,5.60
2018-05-07T16:29:00.875Z,5.40
2018-05-07T16:31:27.852Z,4.97
2018-05-07T16:33:54.840Z,4.90
2018-05-07T16:36:22.599Z,3.97
2018-05-07T16:38:49.614Z,4.00
2018-05-07T16:41:16.610Z,4.50
2018-05-07T16:43:43.626Z,3.80
2018-05-07T16:46:10.609Z,4.90
2018-05-07T16:48:37.633Z,3.57
2018-05-07T16:51:04.646Z,3.93
2018-05-07T16:53:31.661Z,4.30
2018-05-07T16:55:58.673Z,4.90
2018-05-07T16:58:26.434Z,12.57
2018-05-07T17:00:53.453Z,14.13
2018-05-07T17:03:20.449Z,9.70
2018-05-07T17:05:47.457Z,8.60
2018-05-07T17:08:14.635Z,7.73
2018-05-07T17:10:41.705Z,5.20
2018-05-07T17:13:08.736Z,7.30
2018-05-07T17:15:36.504Z,7.97
2018-05-07T17:18:03.495Z,8.90
2018-05-07T17:20:30.522Z,5.27
2018-05-07T17:22:57.519Z,7.67
2018-05-07T17:25:25.296Z,7.20
2018-05-07T17:27:53.092Z,6.67
2018-05-07T17:30:20.141Z,6.20
2018-05-07T17:32:47.141Z,6.60
2018-05-07T17:35:14.127Z,6.70
2018-05-07T17:37:41.143Z,6.70
2018-05-07T17:40:09.477Z,7.30
2018-05-07T17:42:36.479Z,7.53
2018-05-07T17:45:03.482Z,8.27
2018-05-07T17:47:31.109Z,7.10
2018-05-07T17:49:58.154Z,6.60
2018-05-07T17:52:25.151Z,7.67
2018-05-07T17:54:52.167Z,8.53
2018-05-07T17:57:19.168Z,11.77
2018-05-07T17:59:46.963Z,10.17
2018-05-07T18:02:13.973Z,10.37
2018-05-07T18:04:40.972Z,10.47
2018-05-07T18:07:07.972Z,39.60
2018-05-07T18:09:35.763Z,17.03
2018-05-07T18:12:02.781Z,16.70
2018-05-07T18:14:29.787Z,20.10
2018-05-07T18:16:56.787Z,21.07
2018-05-07T18:19:23.954Z,17.60
2018-05-07T18:21:51.121Z,18.00
2018-05-07T18:24:17.964Z,17.00
2018-05-07T18:26:44.974Z,15.60
2018-05-07T18:29:12.769Z,14.43
2018-05-07T18:31:39.757Z,14.50
2018-05-07T18:34:06.754Z,12.17
2018-05-07T18:36:33.764Z,12.70
2018-05-07T18:39:01.570Z,12.00
2018-05-07T18:41:30.020Z,12.70
2018-05-07T18:43:57.071Z,12.40
2018-05-07T18:46:24.067Z,12.70
2018-05-07T18:48:51.193Z,11.70
2018-05-07T18:51:18.199Z,11.00
2018-05-07T18:53:45.196Z,8.70
2018-05-07T18:56:12.208Z,5.90
2018-05-07T18:58:39.991Z,8.73
2018-05-07T19:01:06.984Z,8.50
2018-05-07T19:03:33.979Z,9.30
2018-05-07T19:06:00.967Z,9.13
2018-05-07T19:08:27.980Z,9.00
2018-05-07T19:10:54.969Z,8.23
2018-05-07T19:13:21.973Z,8.93
2018-05-07T19:15:49.338Z,8.07
2018-05-07T19:18:16.338Z,9.20
2018-05-07T19:20:43.418Z,7.80
2018-05-07T19:23:10.428Z,8.97
2018-05-07T19:25:37.436Z,8.50
2018-05-07T19:28:04.424Z,8.30
2018-05-07T19:30:32.228Z,7.60
2018-05-07T19:32:59.231Z,8.60
2018-05-07T19:35:27.348Z,8.40
2018-05-07T19:37:54.351Z,7.93
2018-05-07T19:40:21.724Z,7.63
2018-05-07T19:42:49.484Z,7.80
2018-05-07T19:45:17.253Z,7.57
2018-05-07T19:47:45.005Z,6.40
2018-05-07T19:50:12.183Z,5.70
2018-05-07T19:52:39.935Z,7.20
2018-05-07T19:55:06.960Z,6.77
2018-05-07T19:57:34.047Z,6.73
2018-05-07T20:00:01.174Z,6.30
2018-05-07T20:02:29.420Z,5.77
2018-05-07T20:04:56.691Z,6.40
2018-05-07T20:07:24.460Z,6.00
2018-05-07T20:09:51.532Z,6.10
2018-05-07T20:12:18.621Z,6.00
2018-05-07T20:14:45.548Z,5.27
2018-05-07T20:17:12.551Z,6.00
2018-05-07T20:19:39.734Z,5.83
2018-05-07T20:22:06.735Z,5.80
2018-05-07T20:24:33.748Z,5.40
2018-05-07T20:27:00.741Z,5.17
2018-05-07T20:29:28.540Z,6.20
2018-05-07T20:31:55.541Z,5.37
2018-05-07T20:34:22.556Z,5.77
2018-05-07T20:36:49.549Z,5.70
2018-05-07T20:39:17.352Z,5.70
2018-05-07T20:41:44.343Z,5.37
2018-05-07T20:44:11.368Z,5.40
2018-05-07T20:46:39.135Z,5.70
2018-05-07T20:49:06.179Z,5.07
2018-05-07T20:51:33.999Z,5.70
2018-05-07T20:54:01.810Z,6.20
2018-05-07T20:56:28.806Z,5.50
2018-05-07T20:58:56.605Z,5.00
2018-05-07T21:01:23.654Z,5.50
2018-05-07T21:03:50.647Z,4.70
2018-05-07T21:06:18.516Z,5.47
2018-05-07T21:08:45.574Z,4.70
2018-05-07T21:11:13.331Z,4.50
2018-05-07T21:13:40.318Z,4.50
2018-05-07T21:16:07.552Z,4.90
2018-05-07T21:18:34.557Z,4.60
2018-05-07T21:21:01.555Z,5.00
2018-05-07T21:23:28.717Z,4.40
2018-05-07T21:25:55.717Z,4.20
2018-05-07T21:28:22.715Z,4.03
2018-05-07T21:30:49.926Z,4.20
2018-05-07T21:33:16.925Z,4.23
2018-05-07T21:35:43.937Z,4.27
2018-05-07T21:38:11.693Z,4.40
2018-05-07T21:40:39.510Z,4.33
2018-05-07T21:43:06.516Z,3.53
2018-05-07T21:45:33.509Z,3.80
2018-05-07T21:48:03.362Z,3.83
2018-05-07T21:50:31.157Z,3.93
2018-05-07T21:52:58.147Z,3.73
2018-05-07T21:55:25.141Z,4.00
2018-05-07T21:57:52.280Z,3.83
2018-05-07T22:00:20.177Z,3.57
2018-05-07T22:02:47.180Z,3.60
2018-05-07T22:05:14.184Z,3.80
2018-05-07T22:07:41.182Z,3.70
2018-05-07T22:10:08.484Z,3.50
2018-05-07T22:12:35.505Z,3.97
2018-05-07T22:15:02.556Z,3.30
2018-05-07T22:17:30.288Z,3.40
2018-05-07T22:19:57.352Z,3.10
2018-05-07T22:22:24.366Z,3.53
2018-05-07T22:24:51.448Z,3.33
2018-05-07T22:27:18.461Z,3.40
2018-05-07T22:29:45.613Z,3.70
2018-05-07T22:32:12.906Z,3.17
2018-05-07T22:34:39.907Z,3.10
2018-05-07T22:37:06.891Z,3.70
2018-05-07T22:39:33.944Z,3.40
2018-05-07T22:42:00.932Z,3.60
2018-05-07T22:44:27.916Z,3.10
2018-05-07T22:46:55.687Z,4.13
2018-05-07T22:49:22.754Z,3.13
2018-05-07T22:51:49.751Z,3.10
2018-05-07T22:54:16.754Z,3.20
2018-05-07T22:56:43.763Z,3.57
2018-05-07T22:59:11.554Z,3.27
2018-05-07T23:01:38.582Z,3.63
2018-05-07T23:04:05.595Z,3.20
2018-05-07T23:06:32.684Z,3.30
2018-05-07T23:09:00.566Z,3.83
2018-05-07T23:11:27.580Z,3.20
2018-05-07T23:13:54.579Z,3.10
2018-05-07T23:16:21.573Z,3.33
2018-05-07T23:18:49.333Z,2.97
2018-05-07T23:21:16.321Z,3.03
2018-05-07T23:23:43.328Z,3.03
2018-05-07T23:26:11.116Z,3.10
2018-05-07T23:28:38.103Z,3.00
2018-05-07T23:31:05.093Z,3.43
2018-05-07T23:33:32.876Z,3.00
2018-05-07T23:35:59.860Z,3.30
2018-05-07T23:38:26.865Z,3.57
2018-05-07T23:40:54.637Z,3.27
2018-05-07T23:43:21.630Z,2.93
2018-05-07T23:45:48.621Z,3.67
2018-05-07T23:48:16.367Z,3.50
2018-05-07T23:50:43.443Z,3.23
2018-05-07T23:53:10.459Z,3.20
2018-05-07T23:55:37.497Z,3.07
2018-05-07T23:58:04.548Z,3.60
